Flight Track Log - Related Links

Times and Time Zones

All times are in EDT time to prevent confusion due to time zone crossing. See the N830QS flight status page for this flight to view local times or setup timezone preferences in your user account.


Time Position Orientation Groundspeed Altitude Reporting Facility
EDT Latitude Longitude Course Direction KTS MPH feet Rate Location/Type
Sun 02:02:40 PM 39.3431 -120.2175 72° East 138 159 9,700  Level Oakland Center
Sun 02:03:42 PM 39.3564 -120.1628 72° East 141 162 9,500 307 Descending Oakland Center
Sun 02:05:00 PM 39.2507 -120.3020 226° Southwest  Level Estimated
Sun 02:10:29 PM 39.4586 -120.1550 225° Southwest 252 290 12,100  Level Oakland Center
Sun 02:11:31 PM 39.5169 -120.2336 314° West 338 389 12,800 927 Climbing Oakland Center
Sun 02:12:00 PM 38.6791 -121.0445 226° Southwest  Level Estimated
Sun 02:12:32 PM 39.4842 -120.3492 250° West 344 396 14,000  Level Oakland Center
Sun 02:13:00 PM 38.5970 -121.1496 225° Southwest  Level Estimated
Sun 02:13:33 PM 39.4481 -120.4872 251° West 340 391 15,600  Level Oakland Center
Sun 02:14:00 PM 38.5149 -121.2544 225° Southwest  Level Estimated
Sun 02:14:35 PM 39.4189 -120.6158 254° West 370 426 15,600  Level Oakland Center
Sun 02:15:00 PM 38.4327 -121.3590 225° Southwest  Level Estimated
Sun 02:15:37 PM 39.3875 -120.7419 252° West 370 426 15,600  Level Oakland Center
Sun 02:16:38 PM 39.3578 -120.8672 253° West 368 423 15,600 195 Level Oakland Center
Sun 02:17:40 PM 39.3272 -120.9942 253° West 370 426 16,000 244 Climbing Oakland Center
Sun 02:18:41 PM 39.2967 -121.1161 252° West 361 415 16,100 49 Climbing Oakland Center
Sun 02:19:43 PM 39.2678 -121.2400 253° West 361 415 16,100  Level Oakland Center
Sun 02:20:44 PM 39.2372 -121.3636 252° West 363 418 16,100  Level Oakland Center
Sun 02:22:00 PM 39.1999 -121.5030 251° West  Level FlightAware Approximate
Sun 02:22:47 PM 39.1692 -121.6358 251° West 365 420 16,100  Level Oakland Center
Sun 02:23:49 PM 39.1383 -121.7631 253° West 370 426 16,100  Level Oakland Center
Sun 02:24:51 PM 39.1069 -121.8911 253° West 376 433 16,100  Level Oakland Center
Sun 02:25:52 PM 39.0706 -122.0147 249° West 375 432 16,100 -49 Level Oakland Center
Sun 02:26:54 PM 38.9903 -122.0958 218° Southwest 372 428 16,000 -49 Descending Oakland Center
Sun 02:27:55 PM 38.9075 -122.1672 214° Southwest 361 415 16,000  Level Oakland Center
Sun 02:28:57 PM 38.8067 -122.2536 214° Southwest 364 419 16,000  Level Oakland Center
Sun 02:29:58 PM 38.7228 -122.3275 215° Southwest 367 422 16,000 -49 Level Oakland Center
Sun 02:31:00 PM 38.6436 -122.3936 213° Southwest 367 422 15,900 -49 Descending Oakland Center
Sun 02:32:01 PM 38.5578 -122.4667 214° Southwest 370 426 15,900  Level Oakland Center
Sun 02:33:03 PM 38.4642 -122.5061 198° South 357 411 15,900  Level Oakland Center
Sun 02:34:04 PM 38.3481 -122.5414 193° South 358 412 15,900  Level Oakland Center
Sun 02:35:06 PM 38.2511 -122.5708 193° South 360 414 15,900 -49 Level Oakland Center
Sun 02:36:07 PM 38.1539 -122.5994 193° South 360 414 15,800 -927 Descending Oakland Center
Sun 02:37:09 PM 38.0617 -122.6267 193° South 347 399 14,000 -1,742 Descending Oakland Center
Sun 02:38:11 PM 37.9719 -122.6550 194° South 339 390 12,200 -1,512 Descending Oakland Center
Sun 02:39:12 PM 37.8719 -122.6083 160° South 354 407 10,900 -774 Descending Oakland Center
Sun 02:39:44 PM 37.8333 -122.5667 140° Southeast 342 394 11,000 65 Climbing Northern Cal TRACON
Sun 02:40:44 PM 37.7667 -122.5000 142° Southeast 274 315 11,000  Level Northern Cal TRACON
Sun 02:41:44 PM 37.7167 -122.4333 133° Southeast 247 284 11,000 -700 Level Northern Cal TRACON
Sun 02:42:44 PM 37.7000 -122.3667 108° East 247 284 9,600 -1,240 Descending Northern Cal TRACON
Sun 02:43:45 PM 37.6667 -122.2833 117° Southeast 231 266 8,500 -1,250 Descending Northern Cal TRACON
Sun 02:44:44 PM 37.6333 -122.2167 122° Southeast 213 245 7,100 -1,311 Descending Northern Cal TRACON
Sun 02:45:44 PM 37.6167 -122.1500 107° East 192 221 5,900 -1,500 Descending Northern Cal TRACON
Sun 02:46:44 PM 37.5667 -122.1500 180° South 199 229 4,100 -1,150 Descending Northern Cal TRACON
Sun 02:47:44 PM 37.5667 -122.2167 270° West 194 223 3,600 -900 Descending Northern Cal TRACON
Sun 02:48:44 PM 37.5833 -122.2667 293° West 152 175 2,300 -1,200 Descending Northern Cal TRACON
Sun 02:49:39 PM 37.5833 -122.3000 270° West 116 133 1,300 -893 Descending Northern Cal TRACON
Sun 02:50:45 PM 37.6000 -122.3333 302° West 109 125 500 -727 Descending Northern Cal TRACON

Login

Don't have an account? Register now (free) for customized features, flight alerts, and more!